Time;durP1;ratioP1;P1;durP2;ratioP2;P2;SDS_P1;SDS_P2;PMS_P1;PMS_P2;Temp;Humidity;BMP_temperature;BMP_pressure;BME280_temperature;BME280_humidity;BME280_pressure;Samples;Min_cycle;Max_cycle;Signal;HPM_P1;HPM_P2
2022/05/04 00:00:54;;;;;;;12.40;5.60;;;;;;;11.48;54.68;99827.98;1757913;80;20992;-70
2022/05/04 00:03:21;;;;;;;10.23;4.90;;;;;;;11.44;54.77;99826.13;1732343;80;21052;-70
2022/05/04 00:05:50;;;;;;;9.20;5.28;;;;;;;11.38;54.94;99828.00;1794970;79;22512;-70
2022/05/04 00:08:17;;;;;;;9.73;4.95;;;;;;;11.30;55.08;99829.70;1731155;80;20960;-70
2022/05/04 00:10:44;;;;;;;10.48;5.50;;;;;;;11.23;55.27;99832.05;1742258;80;21024;-71
2022/05/04 00:13:12;;;;;;;10.00;5.60;;;;;;;11.18;55.42;99830.30;1781459;79;21474;-70
2022/05/04 00:15:39;;;;;;;9.95;5.40;;;;;;;11.12;55.62;99833.52;1778914;79;21114;-71
2022/05/04 00:18:07;;;;;;;9.85;6.08;;;;;;;11.07;55.79;99841.02;1775495;79;21921;-70
2022/05/04 00:20:34;;;;;;;10.18;5.70;;;;;;;11.03;55.85;99841.78;1766331;80;21409;-70
2022/05/04 00:23:01;;;;;;;10.30;5.92;;;;;;;11.01;56.02;99842.91;1778286;78;21044;-71
2022/05/04 00:25:28;;;;;;;8.93;5.58;;;;;;;10.98;56.16;99836.55;1802545;79;21144;-72
2022/05/04 00:27:56;;;;;;;10.08;5.70;;;;;;;10.93;56.41;99837.47;1766304;79;20955;-71
2022/05/04 00:30:23;;;;;;;9.65;6.08;;;;;;;10.87;56.53;99838.83;1783965;80;21827;-71
2022/05/04 00:32:50;;;;;;;11.08;5.92;;;;;;;10.82;56.67;99845.03;1782022;80;20950;-71
2022/05/04 00:35:18;;;;;;;9.55;6.25;;;;;;;10.78;56.78;99849.73;1727199;81;20947;-73
2022/05/04 00:37:44;;;;;;;8.85;6.40;;;;;;;10.73;56.97;99853.28;1752509;80;21421;-71
2022/05/04 00:40:12;;;;;;;14.03;6.37;;;;;;;10.65;57.16;99847.00;1755857;80;21058;-71
2022/05/04 00:42:39;;;;;;;14.00;6.67;;;;;;;10.59;57.32;99847.87;1756344;80;21841;-71
2022/05/04 00:45:07;;;;;;;8.60;6.20;;;;;;;10.55;57.40;99842.52;1742954;81;20948;-70
2022/05/04 00:47:34;;;;;;;11.28;6.28;;;;;;;10.55;57.42;99846.48;1737896;80;21018;-69
2022/05/04 00:50:04;;;;;;;9.85;6.10;;;;;;;10.54;57.45;99841.34;1764525;80;21564;-71
2022/05/04 00:52:34;;;;;;;14.80;6.42;;;;;;;10.52;57.50;99844.12;1749314;79;21008;-70
2022/05/04 00:55:01;;;;;;;11.75;6.72;;;;;;;10.50;57.55;99846.04;1788592;79;21872;-70
2022/05/04 01:00:15;;;;;;;14.25;5.92;;;;;;;10.46;57.68;99845.97;1783801;79;21056;-69
2022/05/04 01:02:43;;;;;;;11.18;6.05;;;;;;;10.43;57.76;99839.64;1763352;78;21498;-70
2022/05/04 01:05:10;;;;;;;11.20;6.28;;;;;;;10.41;57.80;99842.05;1793920;78;21048;-70
2022/05/04 01:07:41;;;;;;;10.60;6.30;;;;;;;10.39;57.78;99833.42;1806634;78;21834;-69
2022/05/04 01:10:10;;;;;;;7.85;5.83;;;;;;;10.37;57.75;99838.02;1734388;82;20961;-69
2022/05/04 01:12:51;;;;;;;10.10;6.00;;;;;;;10.33;57.76;99840.09;1750593;80;20975;-69
2022/05/04 01:15:19;;;;;;;10.75;6.17;;;;;;;10.30;57.88;99839.86;1737752;81;21011;-69
2022/05/04 01:17:47;;;;;;;9.03;5.90;;;;;;;10.26;57.96;99839.78;1763300;79;21445;-69
2022/05/04 01:20:15;;;;;;;10.08;6.00;;;;;;;10.20;58.11;99841.59;1787041;80;21790;-70
2022/05/04 01:22:42;;;;;;;9.98;5.47;;;;;;;10.16;58.29;99846.80;1737876;80;21026;-70
2022/05/04 01:25:11;;;;;;;13.13;6.10;;;;;;;10.10;58.39;99842.03;1736806;80;20976;-70
2022/05/04 01:27:38;;;;;;;12.45;5.70;;;;;;;10.07;58.50;99846.27;1757002;80;21097;-71
2022/05/04 01:30:07;;;;;;;11.38;6.15;;;;;;;10.02;58.66;99847.95;1762212;80;20964;-70
2022/05/04 01:32:35;;;;;;;10.08;5.80;;;;;;;9.99;58.80;99848.23;1781912;78;22521;-70
2022/05/04 01:35:02;;;;;;;17.92;6.33;;;;;;;9.98;58.85;99847.87;1781768;78;21069;-69
2022/05/04 01:37:29;;;;;;;7.83;5.85;;;;;;;9.99;58.87;99842.95;1769281;79;20991;-70
2022/05/04 01:39:56;;;;;;;11.03;6.35;;;;;;;10.00;58.90;99843.30;1787895;79;20955;-69
2022/05/04 01:42:24;;;;;;;12.28;6.60;;;;;;;9.98;58.90;99845.23;1759458;80;21034;-69
2022/05/04 01:44:51;;;;;;;17.67;5.90;;;;;;;9.99;58.98;99847.39;1764822;81;21931;-69
2022/05/04 01:47:18;;;;;;;10.60;6.47;;;;;;;9.96;59.06;99846.34;1760565;80;20956;-69
2022/05/04 01:49:45;;;;;;;9.53;6.35;;;;;;;9.92;59.16;99850.19;1762432;80;20996;-69
2022/05/04 01:52:12;;;;;;;13.28;6.97;;;;;;;9.89;59.19;99855.73;1760769;80;21030;-70
2022/05/04 01:54:39;;;;;;;10.93;6.37;;;;;;;9.87;59.29;99849.77;1772246;79;20952;-70
2022/05/04 01:57:07;;;;;;;9.68;6.53;;;;;;;9.85;59.35;99848.58;1769714;79;21923;-69
2022/05/04 01:59:34;;;;;;;14.85;7.20;;;;;;;9.82;59.44;99845.34;1782918;79;20993;-70
2022/05/04 02:02:01;;;;;;;11.38;7.20;;;;;;;9.81;59.48;99841.87;1782875;80;21062;-70
2022/05/04 02:04:29;;;;;;;11.38;6.65;;;;;;;9.78;59.57;99841.31;1811576;79;20993;-69
2022/05/04 02:06:56;;;;;;;10.05;6.80;;;;;;;9.69;59.77;99848.19;1745471;80;20996;-70
2022/05/04 02:09:23;;;;;;;9.28;6.55;;;;;;;9.60;59.94;99840.56;1751722;80;22348;-71
2022/05/04 02:11:50;;;;;;;9.18;6.83;;;;;;;9.58;60.05;99845.14;1788724;79;20970;-70
2022/05/04 02:14:19;;;;;;;12.28;7.12;;;;;;;9.56;60.22;99844.44;1777657;80;21004;-69
2022/05/04 02:16:46;;;;;;;10.82;7.15;;;;;;;9.52;60.27;99844.32;1746627;80;20969;-69
2022/05/04 02:19:13;;;;;;;11.65;7.05;;;;;;;9.48;60.22;99846.88;1780386;79;21050;-70
2022/05/04 02:21:41;;;;;;;13.55;7.30;;;;;;;9.45;60.24;99849.26;1746556;80;22304;-70
2022/05/04 02:24:09;;;;;;;9.15;6.70;;;;;;;9.44;60.20;99853.34;1782771;80;20989;-70
2022/05/04 02:26:36;;;;;;;12.20;7.12;;;;;;;9.44;60.32;99851.55;1770870;79;20993;-70
2022/05/04 02:29:03;;;;;;;12.35;7.53;;;;;;;9.41;60.38;99849.17;1761024;79;21309;-70
2022/05/04 02:31:30;;;;;;;10.90;6.95;;;;;;;9.38;60.47;99853.88;1756357;79;20944;-70
2022/05/04 02:33:57;;;;;;;13.18;7.10;;;;;;;9.36;60.55;99854.00;1816283;79;22354;-70
2022/05/04 02:39:10;;;;;;;12.30;7.58;;;;;;;9.29;60.70;99857.27;1814981;79;20938;-70
2022/05/04 02:41:37;;;;;;;12.78;8.00;;;;;;;9.26;60.89;99853.54;1749417;79;20951;-71
2022/05/04 02:44:04;;;;;;;11.40;8.35;;;;;;;9.25;61.01;99856.66;1777313;79;21028;-70
2022/05/04 02:46:31;;;;;;;11.60;7.53;;;;;;;9.25;61.03;99855.83;1786489;79;22225;-70
2022/05/04 02:48:59;;;;;;;12.43;8.60;;;;;;;9.25;61.06;99863.73;1795329;79;21381;-69
2022/05/04 02:51:26;;;;;;;13.68;7.42;;;;;;;9.23;61.21;99863.03;1779751;79;21484;-69
2022/05/04 02:53:53;;;;;;;10.00;7.12;;;;;;;9.21;61.34;99860.52;1751196;80;20992;-69
2022/05/04 02:56:21;;;;;;;14.10;7.60;;;;;;;9.20;61.47;99868.08;1778427;79;20949;-68
2022/05/04 02:58:51;;;;;;;11.05;7.50;;;;;;;9.17;61.57;99865.22;1778253;79;21966;-71
2022/05/04 03:04:07;;;;;;;11.35;7.87;;;;;;;9.18;61.72;99868.20;1787018;79;21001;-69
2022/05/04 03:06:35;;;;;;;11.10;8.43;;;;;;;9.16;61.75;99872.73;1782601;80;20996;-69
2022/05/04 03:09:04;;;;;;;16.27;7.85;;;;;;;9.14;61.85;99873.34;1782619;80;21482;-68
2022/05/04 03:14:20;;;;;;;15.38;8.00;;;;;;;9.11;61.93;99870.97;1772316;78;21026;-70
2022/05/04 03:16:47;;;;;;;13.62;7.83;;;;;;;9.07;62.04;99872.20;1795345;79;21041;-69
2022/05/04 03:19:15;;;;;;;11.55;8.08;;;;;;;9.08;62.10;99874.35;1729340;80;21158;-69
2022/05/04 03:21:42;;;;;;;14.38;8.20;;;;;;;9.08;62.18;99877.82;1751281;80;21046;-70
2022/05/04 03:24:09;;;;;;;11.28;7.47;;;;;;;9.10;62.24;99877.20;1764405;80;21811;-70
2022/05/04 03:26:37;;;;;;;12.50;6.67;;;;;;;9.10;62.29;99872.42;1758777;80;21004;-70
2022/05/04 03:29:04;;;;;;;11.85;7.50;;;;;;;9.11;62.42;99879.36;1758675;81;21016;-69
2022/05/04 03:31:31;;;;;;;12.23;7.92;;;;;;;9.13;62.50;99882.70;1749297;80;21362;-69
2022/05/04 03:33:58;;;;;;;10.10;7.53;;;;;;;9.15;62.57;99880.77;1780736;78;21046;-69
2022/05/04 03:36:26;;;;;;;12.18;8.15;;;;;;;9.20;62.61;99887.84;1756552;81;22599;-69
2022/05/04 03:38:53;;;;;;;11.33;8.25;;;;;;;9.19;62.62;99882.22;1761469;80;21421;-70
2022/05/04 03:41:24;;;;;;;14.33;8.00;;;;;;;9.20;62.77;99891.79;1749965;80;21016;-70
2022/05/04 03:43:51;;;;;;;11.83;7.67;;;;;;;9.21;62.88;99886.03;1733248;80;20979;-70
2022/05/04 03:46:23;;;;;;;18.05;7.83;;;;;;;9.26;62.99;99889.12;1755491;80;21004;-69
2022/05/04 03:48:52;;;;;;;10.68;7.22;;;;;;;9.28;63.12;99887.22;1734135;80;22640;-73
2022/05/04 03:51:20;;;;;;;9.73;6.80;;;;;;;9.31;63.34;99898.34;1759067;80;21367;-70
2022/05/04 03:53:51;;;;;;;11.55;6.60;;;;;;;9.36;63.48;99900.58;1767362;78;21029;-68
2022/05/04 03:56:19;;;;;;;10.93;6.25;;;;;;;9.43;63.59;99901.27;1776597;78;20949;-69
2022/05/04 03:58:46;;;;;;;9.00;6.50;;;;;;;9.50;63.65;99906.05;1774999;80;20969;-69
2022/05/04 04:01:14;;;;;;;8.25;6.25;;;;;;;9.57;63.68;99901.95;1785812;79;21851;-69
2022/05/04 04:03:41;;;;;;;9.43;6.62;;;;;;;9.65;63.74;99907.41;1778794;79;20965;-69
2022/05/04 04:06:09;;;;;;;8.10;6.03;;;;;;;9.73;63.76;99904.97;1775384;79;20993;-69
2022/05/04 04:08:36;;;;;;;15.85;6.65;;;;;;;9.82;63.79;99904.20;1784366;79;20977;-69
2022/05/04 04:11:03;;;;;;;9.25;5.72;;;;;;;9.91;63.77;99899.97;1786102;79;21002;-69
2022/05/04 04:13:31;;;;;;;10.08;6.15;;;;;;;9.99;63.75;99898.36;1803826;79;21943;-70
2022/05/04 04:15:58;;;;;;;7.17;5.90;;;;;;;10.11;63.63;99899.59;1813438;79;21373;-69
2022/05/04 04:18:26;;;;;;;9.30;5.97;;;;;;;10.22;63.54;99896.91;1796605;78;20990;-70
2022/05/04 04:23:39;;;;;;;12.82;6.30;;;;;;;10.45;63.18;99892.31;1733761;80;21015;-69
2022/05/04 04:26:09;;;;;;;7.05;5.75;;;;;;;10.57;62.90;99899.16;1773410;79;21457;-69
2022/05/04 04:28:38;;;;;;;9.63;6.53;;;;;;;10.67;62.76;99895.23;1772109;79;20987;-69
2022/05/04 04:31:05;;;;;;;9.00;6.50;;;;;;;10.79;62.65;99893.66;1777861;79;20953;-70
2022/05/04 04:33:33;;;;;;;11.88;6.80;;;;;;;10.93;62.49;99896.92;1747846;80;21066;-70
2022/05/04 04:36:00;;;;;;;10.38;7.33;;;;;;;11.05;62.34;99889.21;1765220;79;21062;-70
2022/05/04 04:38:28;;;;;;;15.15;7.53;;;;;;;11.19;62.00;99891.45;1766646;79;21966;-70
2022/05/04 04:40:55;;;;;;;13.62;7.55;;;;;;;11.32;61.83;99897.32;1762017;79;20966;-70
2022/05/04 04:43:22;;;;;;;17.35;8.45;;;;;;;11.46;61.61;99898.70;1754341;79;21044;-70
2022/05/04 04:45:50;;;;;;;15.30;8.85;;;;;;;11.60;61.46;99894.83;1763050;79;21026;-74
2022/05/04 04:48:17;;;;;;;14.47;8.33;;;;;;;11.78;61.26;99895.79;1785386;79;21008;-71
2022/05/04 04:50:47;;;;;;;14.78;8.80;;;;;;;11.93;61.04;99898.36;1772042;80;21948;-70
2022/05/04 04:53:14;;;;;;;11.78;6.53;;;;;;;12.11;60.64;99898.95;1772986;80;21000;-70
2022/05/04 04:55:41;;;;;;;8.48;5.17;;;;;;;12.25;60.04;99900.64;1782173;79;20994;-70
2022/05/04 04:58:09;;;;;;;9.40;4.92;;;;;;;12.44;58.47;99902.39;1760751;80;20973;-69
2022/05/04 05:00:37;;;;;;;5.95;4.90;;;;;;;12.65;57.55;99893.41;1757632;80;21044;-70
2022/05/04 05:03:05;;;;;;;8.95;4.70;;;;;;;12.83;56.53;99890.29;1766007;80;21824;-70
2022/05/04 05:05:33;;;;;;;9.70;5.05;;;;;;;12.99;55.92;99897.11;1760533;80;21045;-71
2022/05/04 05:08:00;;;;;;;9.35;4.53;;;;;;;13.14;55.58;99894.30;1772703;80;21008;-70
2022/05/04 05:10:28;;;;;;;7.20;4.50;;;;;;;13.27;55.47;99891.80;1752785;81;20995;-70
2022/05/04 05:12:56;;;;;;;6.42;4.33;;;;;;;13.39;54.82;99897.22;1729500;83;21070;-69
2022/05/04 05:18:08;;;;;;;6.65;4.72;;;;;;;13.62;54.25;99897.11;1730709;80;21556;-70
2022/05/04 05:20:37;;;;;;;7.12;4.67;;;;;;;13.74;53.17;99901.68;1750670;80;22065;-73
2022/05/04 05:23:05;;;;;;;6.62;4.45;;;;;;;13.81;52.65;99904.06;1762573;78;21017;-70
2022/05/04 05:25:33;;;;;;;8.13;5.17;;;;;;;13.87;52.65;99898.12;1760683;80;21109;-73
2022/05/04 05:28:00;;;;;;;7.40;5.10;;;;;;;13.96;52.67;99899.85;1736246;81;22828;-71
2022/05/04 05:30:27;;;;;;;18.57;5.00;;;;;;;14.07;52.08;99902.75;1756909;80;21546;-71
2022/05/04 05:32:54;;;;;;;11.05;4.90;;;;;;;14.14;52.01;99895.83;1756671;79;21031;-70
2022/05/04 05:35:21;;;;;;;7.37;4.85;;;;;;;14.23;52.02;99899.38;1765880;79;21015;-72
2022/05/04 05:37:49;;;;;;;10.20;4.97;;;;;;;14.31;52.02;99896.27;1763517;80;21073;-76
2022/05/04 05:40:16;;;;;;;6.10;4.83;;;;;;;14.44;52.17;99905.62;1765166;80;21816;-73
2022/05/04 05:42:45;;;;;;;9.45;5.08;;;;;;;14.54;51.40;99901.89;1755299;79;21542;-74
2022/05/04 05:45:12;;;;;;;7.20;4.75;;;;;;;14.62;51.75;99902.44;1755105;80;21037;-73
2022/05/04 05:47:40;;;;;;;9.00;4.72;;;;;;;14.66;51.41;99902.44;1771648;80;20996;-74
2022/05/04 05:50:10;;;;;;;7.35;4.87;;;;;;;14.69;51.00;99910.12;1742547;79;21525;-74
2022/05/04 05:52:38;;;;;;;8.15;4.50;;;;;;;14.72;50.53;99909.79;1764065;80;21510;-74
2022/05/04 05:55:08;;;;;;;7.47;4.60;;;;;;;14.74;50.48;99907.80;1738327;80;21040;-72
2022/05/04 05:57:36;;;;;;;7.28;4.33;;;;;;;14.78;50.39;99905.17;1775358;79;21004;-72
2022/05/04 06:00:04;;;;;;;8.53;4.40;;;;;;;14.87;50.14;99909.53;1781134;80;21032;-71
2022/05/04 06:02:35;;;;;;;6.97;4.33;;;;;;;14.94;50.03;99910.20;1775020;79;21024;-72
2022/05/04 06:05:02;;;;;;;6.08;3.65;;;;;;;15.01;49.36;99913.89;1785174;80;22590;-74
2022/05/04 06:07:29;;;;;;;6.87;5.15;;;;;;;15.05;49.27;99913.39;1759095;81;21044;-71
2022/05/04 06:09:58;;;;;;;6.05;4.35;;;;;;;15.04;49.17;99914.88;1762432;81;21047;-72
2022/05/04 06:12:25;;;;;;;5.67;4.33;;;;;;;14.95;49.31;99922.50;1754931;81;21048;-73
2022/05/04 06:14:52;;;;;;;5.10;3.80;;;;;;;14.93;49.78;99925.32;1786967;79;21026;-72
2022/05/04 06:17:19;;;;;;;8.23;4.65;;;;;;;14.96;49.79;99924.16;1749171;81;21868;-71
2022/05/04 06:19:47;;;;;;;6.50;4.65;;;;;;;15.02;49.89;99931.50;1785744;79;21075;-73
2022/05/04 06:22:14;;;;;;;6.47;4.72;;;;;;;15.11;50.02;99922.56;1777647;80;20964;-71
2022/05/04 06:24:41;;;;;;;6.33;4.75;;;;;;;15.19;49.73;99923.91;1772838;78;21446;-71
2022/05/04 06:27:08;;;;;;;7.58;4.83;;;;;;;15.30;49.83;99920.11;1780487;80;20924;-72
2022/05/04 06:35:07;;;;;;;8.28;4.70;;;;;;;15.64;49.28;99917.37;1782028;80;21113;-72
2022/05/04 06:37:34;;;;;;;9.93;4.65;;;;;;;15.72;49.35;99915.53;1781469;80;21028;-72
2022/05/04 06:40:03;;;;;;;6.55;4.33;;;;;;;15.81;49.02;99916.86;1783751;80;21031;-74
2022/05/04 06:42:31;;;;;;;7.58;4.45;;;;;;;15.86;48.67;99918.04;1774873;79;21988;-72
2022/05/04 06:44:58;;;;;;;7.12;4.70;;;;;;;15.89;48.50;99919.03;1783480;80;21043;-73
2022/05/04 06:47:26;;;;;;;9.23;4.25;;;;;;;15.97;48.71;99921.69;1774154;80;21437;-71
2022/05/04 06:49:53;;;;;;;8.55;4.75;;;;;;;16.06;48.60;99918.53;1749200;80;21091;-72
2022/05/04 06:52:20;;;;;;;7.53;4.62;;;;;;;16.09;48.22;99921.34;1752162;81;21474;-73
2022/05/04 06:54:47;;;;;;;7.87;4.53;;;;;;;16.12;48.81;99921.03;1776160;79;22921;-73
2022/05/04 06:57:14;;;;;;;8.83;4.67;;;;;;;16.22;48.69;99919.02;1747845;80;22094;-73
2022/05/04 06:59:43;;;;;;;6.50;4.47;;;;;;;16.33;48.13;99919.98;1764643;80;21050;-74
2022/05/04 07:02:10;;;;;;;8.28;4.50;;;;;;;16.42;47.29;99920.30;1762787;80;21493;-73
2022/05/04 07:04:37;;;;;;;7.85;4.20;;;;;;;16.52;47.75;99931.61;1757738;80;21032;-73
2022/05/04 07:07:05;;;;;;;7.10;4.20;;;;;;;16.66;47.47;99928.72;1751650;80;21841;-73
2022/05/04 07:09:33;;;;;;;10.48;4.62;;;;;;;16.79;47.64;99916.19;1767577;80;21043;-73
2022/05/04 07:12:00;;;;;;;9.13;3.80;;;;;;;16.90;47.14;99925.67;1761724;80;21062;-73
2022/05/04 07:14:27;;;;;;;7.50;3.85;;;;;;;16.99;46.16;99926.80;1778669;79;20995;-72
2022/05/04 07:16:55;;;;;;;5.28;3.65;;;;;;;17.11;45.98;99935.24;1746898;80;21067;-72
2022/05/04 07:19:22;;;;;;;6.72;3.67;;;;;;;17.21;45.18;99935.02;1749027;80;21971;-73
2022/05/04 07:21:49;;;;;;;5.28;4.00;;;;;;;17.26;45.03;99940.14;1778464;79;21045;-74
2022/05/04 07:24:16;;;;;;;8.88;4.03;;;;;;;17.33;45.35;99941.62;1753679;80;21070;-74
2022/05/04 07:26:44;;;;;;;4.72;3.40;;;;;;;17.42;44.88;99944.57;1759125;80;20996;-73
2022/05/04 07:29:11;;;;;;;4.95;3.20;;;;;;;17.45;45.25;99942.88;1779152;79;21469;-74
2022/05/04 07:31:38;;;;;;;6.22;3.33;;;;;;;17.50;43.44;99952.53;1787115;79;21829;-72
2022/05/04 07:34:06;;;;;;;6.55;3.47;;;;;;;17.52;43.23;99949.68;1755273;80;21074;-73
2022/05/04 07:36:33;;;;;;;4.53;3.17;;;;;;;17.55;43.40;99951.48;1755286;80;20929;-73
2022/05/04 07:39:00;;;;;;;4.17;3.00;;;;;;;17.59;43.76;99950.14;1786745;79;21029;-72
2022/05/04 07:44:13;;;;;;;5.30;3.20;;;;;;;17.75;42.60;99957.22;1780034;79;21965;-74
2022/05/04 07:46:42;;;;;;;4.83;3.30;;;;;;;17.70;42.06;99952.93;1749049;80;21047;-74
2022/05/04 07:49:09;;;;;;;9.00;3.50;;;;;;;17.67;41.92;99961.28;1766109;80;21037;-73
2022/05/04 07:51:36;;;;;;;6.75;3.60;;;;;;;17.71;41.91;99957.26;1759873;80;21024;-74
2022/05/04 07:54:04;;;;;;;4.55;3.00;;;;;;;17.80;42.20;99963.37;1763086;81;21039;-74
2022/05/04 07:56:31;;;;;;;5.83;3.40;;;;;;;17.86;41.83;99962.17;1764196;80;22447;-75
2022/05/04 07:58:58;;;;;;;5.90;2.95;;;;;;;17.89;41.60;99958.30;1772202;79;20998;-74
2022/05/04 08:04:16;;;;;;;5.58;3.02;;;;;;;18.11;42.06;99958.77;1781948;79;21637;-73
2022/05/04 08:06:42;;;;;;;3.90;2.70;;;;;;;18.24;42.01;99960.84;1775575;80;21117;-75
2022/05/04 08:09:09;;;;;;;7.95;3.40;;;;;;;18.41;41.48;99956.16;1774434;79;21926;-73
2022/05/04 08:11:36;;;;;;;10.18;3.40;;;;;;;18.46;40.85;99956.45;1778787;79;21035;-73
2022/05/04 08:14:04;;;;;;;5.65;3.20;;;;;;;18.50;40.82;99962.57;1752963;79;21037;-74
2022/05/04 08:16:31;;;;;;;6.67;3.10;;;;;;;18.52;41.41;99964.55;1778067;79;20973;-73
2022/05/04 08:19:00;;;;;;;7.25;3.20;;;;;;;18.58;41.05;99961.66;1782974;79;21004;-75
2022/05/04 08:21:27;;;;;;;7.20;3.00;;;;;;;18.62;41.34;99959.44;1776221;79;21885;-70
2022/05/04 08:23:54;;;;;;;5.58;3.05;;;;;;;18.65;41.01;99955.11;1772522;79;20988;-72
2022/05/04 08:26:21;;;;;;;9.25;3.10;;;;;;;18.72;41.12;99958.20;1774963;79;21070;-72
2022/05/04 08:28:48;;;;;;;4.87;3.65;;;;;;;18.81;40.97;99957.07;1780634;79;21057;-71
2022/05/04 08:31:15;;;;;;;3.70;3.02;;;;;;;18.87;40.78;99956.34;1770851;79;21023;-70
2022/05/04 08:33:42;;;;;;;4.67;3.08;;;;;;;18.93;41.23;99963.32;1771463;79;21954;-72
2022/05/04 08:36:10;;;;;;;4.67;2.60;;;;;;;18.99;39.28;99963.38;1773288;79;21879;-72
2022/05/04 08:38:37;;;;;;;6.17;3.22;;;;;;;18.99;39.37;99958.03;1778908;79;21070;-69
2022/05/04 08:41:04;;;;;;;6.40;2.98;;;;;;;19.05;39.36;99955.13;1772088;79;21082;-73
2022/05/04 08:43:32;;;;;;;5.15;3.20;;;;;;;19.10;39.03;99962.08;1767802;79;21030;-72
2022/05/04 08:46:02;;;;;;;8.80;3.10;;;;;;;19.04;38.48;99965.52;1785960;79;21911;-73
2022/05/04 08:48:35;;;;;;;7.47;2.72;;;;;;;19.02;38.87;99967.05;1778006;80;21597;-73
2022/05/04 08:51:03;;;;;;;5.35;2.75;;;;;;;19.11;38.67;99957.07;1757093;79;21030;-75
2022/05/04 08:53:32;;;;;;;3.85;2.55;;;;;;;19.20;38.75;99956.43;1768187;79;21039;-71
2022/05/04 08:55:59;;;;;;;5.17;2.77;;;;;;;19.31;38.68;99954.63;1771301;79;21602;-74
2022/05/04 08:58:26;;;;;;;6.78;2.60;;;;;;;19.41;38.49;99954.64;1767817;78;21879;-73
2022/05/04 09:00:53;;;;;;;3.75;2.35;;;;;;;19.52;37.66;99957.84;1772478;79;21470;-73
2022/05/04 09:03:21;;;;;;;6.55;2.30;;;;;;;19.56;36.47;99955.95;1773918;80;20997;-72
2022/05/04 09:05:50;;;;;;;7.65;2.65;;;;;;;19.57;36.58;99966.16;1749169;80;21029;-72
2022/05/04 09:08:18;;;;;;;3.92;2.20;;;;;;;19.59;36.37;99969.47;1722957;81;21080;-73
2022/05/04 09:10:45;;;;;;;4.78;2.40;;;;;;;19.60;35.54;99969.82;1755454;80;21864;-73
2022/05/04 09:13:13;;;;;;;7.97;2.50;;;;;;;19.61;35.33;99963.44;1768838;79;21054;-73
2022/05/04 09:15:40;;;;;;;5.85;2.02;;;;;;;19.65;35.57;99956.66;1780172;79;21022;-74
2022/05/04 09:18:10;;;;;;;5.08;2.35;;;;;;;19.74;35.34;99950.16;1796514;79;21012;-73
2022/05/04 09:21:04;;;;;;;5.35;2.08;;;;;;;19.89;34.94;99954.95;1793579;79;21050;-75
2022/05/04 09:23:28;;;;;;;6.47;2.30;;;;;;;20.03;34.02;99956.41;1746411;80;22802;-75
2022/05/04 09:25:59;;;;;;;4.10;2.12;;;;;;;20.01;33.72;99959.28;1752068;80;21025;-74
2022/05/04 09:28:28;;;;;;;3.42;1.90;;;;;;;19.94;34.20;99953.85;1788597;79;21029;-72
2022/05/04 09:30:58;;;;;;;4.35;2.67;;;;;;;19.99;34.80;99959.48;1749610;80;21074;-74
2022/05/04 09:33:28;;;;;;;5.70;2.40;;;;;;;20.13;34.45;99960.92;1808961;79;21083;-77
2022/05/04 09:35:56;;;;;;;4.20;2.40;;;;;;;20.22;35.32;99956.56;1796007;79;23332;-76
2022/05/04 09:46:51;;;;;;;4.42;2.55;;;;;;;20.38;34.61;99962.16;1760485;80;21563;-76
2022/05/04 09:49:21;;;;;;;5.92;2.77;;;;;;;20.33;34.14;99960.56;1759253;79;21826;-77
2022/05/04 09:51:53;;;;;;;6.35;2.45;;;;;;;20.21;34.24;99964.30;1772862;79;21095;-74
2022/05/04 09:54:27;;;;;;;3.90;2.65;;;;;;;20.12;35.17;99962.78;1767420;79;21037;-73
2022/05/04 09:56:59;;;;;;;8.08;2.83;;;;;;;20.21;35.01;99950.06;1764302;79;20979;-74
2022/05/04 09:59:30;;;;;;;3.17;2.30;;;;;;;20.41;34.54;99956.39;1750075;79;21145;-73
2022/05/04 10:02:03;;;;;;;4.70;2.35;;;;;;;20.46;33.45;99953.14;1762858;80;21777;-74
2022/05/04 10:04:28;;;;;;;5.15;2.22;;;;;;;20.49;33.54;99950.91;1743286;80;21044;-77
2022/05/04 10:06:55;;;;;;;8.70;2.30;;;;;;;20.57;34.40;99953.45;1756345;80;21038;-76
2022/05/04 10:09:23;;;;;;;3.80;2.12;;;;;;;20.76;33.62;99951.91;1754439;80;21495;-79
2022/05/04 10:12:00;;;;;;;3.70;2.17;;;;;;;20.96;32.97;99949.84;1754628;80;21087;-76
2022/05/04 10:14:26;;;;;;;3.75;2.20;;;;;;;21.14;32.32;99937.53;1756563;81;22532;-76
2022/05/04 10:17:15;;;;;;;4.05;1.90;;;;;;;21.29;33.52;99944.62;1755523;80;21022;-77
2022/05/04 10:19:49;;;;;;;3.95;2.00;;;;;;;21.46;32.13;99944.58;1757263;80;21068;-76
2022/05/04 10:22:24;;;;;;;3.17;2.00;;;;;;;21.34;31.82;99944.86;1747651;80;21025;-77
2022/05/04 10:24:51;;;;;;;4.10;1.90;;;;;;;21.28;32.20;99938.42;1729681;81;21911;-78
2022/05/04 10:27:23;;;;;;;4.87;1.87;;;;;;;21.50;32.64;99944.47;1706821;80;22017;-76
2022/05/04 10:32:47;;;;;;;6.55;2.00;;;;;;;21.73;32.12;99939.26;1728948;81;21591;-77
2022/05/04 10:35:25;;;;;;;5.95;1.67;;;;;;;21.73;32.20;99944.12;1755643;80;21445;-77
2022/05/04 10:38:04;;;;;;;6.03;1.60;;;;;;;21.81;32.00;99946.62;1750649;80;21086;-76
2022/05/04 10:40:38;;;;;;;6.78;1.95;;;;;;;21.77;30.51;99939.16;1751377;80;22346;-75
2022/05/04 10:43:12;;;;;;;2.60;1.50;;;;;;;21.63;31.07;99937.80;1747209;81;21071;-75
2022/05/04 10:45:41;;;;;;;3.20;1.50;;;;;;;21.74;31.49;99939.57;1737223;81;21090;-75
2022/05/04 10:48:22;;;;;;;5.47;1.60;;;;;;;22.05;31.90;99943.83;1755674;80;20993;-75
2022/05/04 10:51:22;;;;;;;5.50;1.45;;;;;;;22.32;30.27;99943.85;1736058;81;21047;-76
2022/05/04 10:53:51;;;;;;;3.15;1.77;;;;;;;22.20;30.29;99944.48;1733863;81;21785;-75
2022/05/04 10:56:23;;;;;;;5.30;1.77;;;;;;;21.89;29.98;99945.05;1756540;80;21012;-76
2022/05/04 10:58:59;;;;;;;9.77;2.50;;;;;;;21.56;30.12;99949.05;1728908;80;21491;-75
2022/05/04 11:01:31;;;;;;;3.10;1.57;;;;;;;21.56;30.12;99949.05;1757046;80;21537;-75
2022/05/04 11:04:16;;;;;;;12.70;1.77;;;;;;;21.41;29.98;99947.03;1761288;80;21068;-77
2022/05/04 11:06:44;;;;;;;5.85;1.52;;;;;;;21.33;31.23;99953.95;1745370;80;21845;-78
2022/05/04 11:09:17;;;;;;;1.95;1.60;;;;;;;21.34;30.64;99951.06;1744616;81;21033;-78
2022/05/04 11:11:48;;;;;;;5.12;1.50;;;;;;;21.43;30.69;99946.34;1758274;81;21492;-76
2022/05/04 11:14:17;;;;;;;4.20;1.82;;;;;;;21.65;30.85;99949.16;1751658;81;21503;-75
2022/05/04 11:16:45;;;;;;;4.05;1.90;;;;;;;21.59;29.82;99949.14;1745272;80;21062;-76
2022/05/04 11:19:13;;;;;;;3.60;1.60;;;;;;;21.48;30.73;99953.25;1755084;80;21888;-77
2022/05/04 11:21:40;;;;;;;3.47;1.80;;;;;;;21.61;30.26;99952.45;1755105;80;21059;-75
2022/05/04 11:24:11;;;;;;;6.45;1.55;;;;;;;21.76;28.70;99947.73;1751114;80;21030;-75
2022/05/04 11:26:42;;;;;;;5.80;1.80;;;;;;;21.81;28.84;99943.07;1749977;80;21018;-70
2022/05/04 11:29:17;;;;;;;5.50;1.90;;;;;;;21.77;29.40;99936.46;1752996;80;21042;-69
2022/05/04 11:31:47;;;;;;;7.25;1.50;;;;;;;21.93;29.67;99936.90;1752200;80;21869;-71
2022/05/04 11:34:16;;;;;;;5.83;1.30;;;;;;;22.19;29.16;99936.59;1762311;80;21054;-72
2022/05/04 11:36:45;;;;;;;3.87;1.65;;;;;;;22.25;28.49;99936.60;1751397;80;21012;-72
2022/05/04 11:39:20;;;;;;;4.78;1.45;;;;;;;22.14;29.07;99937.75;1734091;81;21097;-72
2022/05/04 11:41:52;;;;;;;5.03;1.47;;;;;;;21.97;29.13;99934.09;1701594;82;21057;-70
2022/05/04 11:44:22;;;;;;;1.67;1.20;;;;;;;21.79;28.92;99931.70;1699319;82;21926;-71
2022/05/04 11:46:53;;;;;;;2.50;1.50;;;;;;;21.61;29.45;99938.49;1755733;80;21213;-74
2022/05/04 11:49:23;;;;;;;3.83;1.55;;;;;;;21.54;29.05;99935.51;1761661;80;21047;-72
2022/05/04 11:51:52;;;;;;;4.97;1.40;;;;;;;21.37;28.93;99932.36;1759109;80;21043;-79
2022/05/04 11:54:19;;;;;;;3.20;1.50;;;;;;;21.38;29.69;99929.98;1731494;81;21303;-75
2022/05/04 11:56:46;;;;;;;4.33;1.50;;;;;;;21.54;29.75;99941.70;1746390;81;21975;-72
2022/05/04 11:59:13;;;;;;;3.90;1.30;;;;;;;21.59;30.21;99939.73;1744174;79;21545;-72
2022/05/04 12:01:43;;;;;;;4.37;1.62;;;;;;;21.47;29.65;99944.88;1731838;81;20988;-71
2022/05/04 12:04:12;;;;;;;2.55;1.30;;;;;;;21.23;29.92;99947.59;1733422;82;20954;-71
2022/05/04 12:06:41;;;;;;;4.85;1.70;;;;;;;21.02;29.53;99953.88;1753376;80;20996;-71
2022/05/04 12:09:11;;;;;;;3.90;1.82;;;;;;;20.94;30.51;99951.88;1776211;80;21944;-72
2022/05/04 12:11:42;;;;;;;4.15;1.72;;;;;;;21.08;30.72;99953.61;1761053;81;21015;-73
2022/05/04 12:14:11;;;;;;;4.58;1.50;;;;;;;21.35;29.94;99937.94;1769005;81;20949;-72
2022/05/04 12:16:38;;;;;;;3.25;1.50;;;;;;;21.53;29.66;99942.73;1759461;81;20973;-73